createdAt,value
2022-12-24T00:00:09.158Z,0
2022-12-24T00:01:25.418Z,0
2022-12-24T00:02:41.714Z,0
2022-12-24T00:03:58.004Z,0
2022-12-24T00:05:14.327Z,0
2022-12-24T00:06:30.620Z,0
2022-12-24T00:07:46.906Z,0
2022-12-24T00:09:03.213Z,0
2022-12-24T00:10:19.511Z,0
2022-12-24T00:11:35.801Z,0
2022-12-24T00:12:52.082Z,0
2022-12-24T00:14:08.375Z,0
2022-12-24T00:15:24.669Z,0
2022-12-24T00:16:39.955Z,0
2022-12-24T00:17:56.253Z,0
2022-12-24T00:19:12.550Z,0
2022-12-24T00:20:28.870Z,0
2022-12-24T00:21:45.164Z,0
2022-12-24T00:23:01.426Z,0
2022-12-24T00:24:17.738Z,0
2022-12-24T00:25:34.011Z,0
2022-12-24T00:26:50.314Z,0
2022-12-24T00:28:06.600Z,0
2022-12-24T00:29:22.894Z,0
2022-12-24T00:30:39.220Z,0
2022-12-24T00:31:55.503Z,0
2022-12-24T00:33:10.817Z,0
2022-12-24T00:34:27.113Z,0
2022-12-24T00:35:43.397Z,0
2022-12-24T00:36:59.692Z,0
2022-12-24T00:38:15.982Z,0
2022-12-24T00:39:32.265Z,0
2022-12-24T00:40:48.581Z,0
2022-12-24T00:42:04.874Z,0
2022-12-24T00:43:21.147Z,0
2022-12-24T00:44:37.457Z,0
2022-12-24T00:45:53.752Z,0
2022-12-24T00:47:10.037Z,0
2022-12-24T00:48:26.343Z,0
2022-12-24T00:49:41.648Z,0
2022-12-24T00:50:57.935Z,0
2022-12-24T00:52:14.217Z,0
2022-12-24T00:53:30.534Z,0
2022-12-24T00:54:46.798Z,0
2022-12-24T00:56:03.124Z,0
2022-12-24T00:57:19.390Z,0
2022-12-24T00:58:35.679Z,0
2022-12-24T00:59:51.978Z,0
2022-12-24T01:01:08.289Z,0
2022-12-24T01:02:24.584Z,0
2022-12-24T01:03:40.846Z,0
2022-12-24T01:04:57.144Z,0
2022-12-24T01:06:12.492Z,0
2022-12-24T01:07:28.777Z,0
2022-12-24T01:08:45.039Z,0
2022-12-24T01:10:01.370Z,0
2022-12-24T01:11:17.624Z,0
2022-12-24T01:12:33.944Z,0
2022-12-24T01:13:50.209Z,0
2022-12-24T01:15:06.548Z,0
2022-12-24T01:16:22.838Z,0
2022-12-24T01:17:39.094Z,0
2022-12-24T01:18:55.420Z,0
2022-12-24T01:20:11.720Z,0
2022-12-24T01:21:28.011Z,0
2022-12-24T01:22:43.308Z,0
2022-12-24T01:23:59.592Z,0
2022-12-24T01:25:15.876Z,0
2022-12-24T01:26:32.185Z,0
2022-12-24T01:27:48.466Z,0
2022-12-24T01:29:04.772Z,0
2022-12-24T01:30:21.071Z,0
2022-12-24T01:31:37.339Z,0
2022-12-24T01:32:53.669Z,0
2022-12-24T01:34:09.958Z,0
2022-12-24T01:35:26.253Z,0
2022-12-24T01:36:42.520Z,0
2022-12-24T01:37:58.846Z,0
2022-12-24T01:39:14.138Z,0
2022-12-24T01:40:30.412Z,0
2022-12-24T01:41:46.734Z,0
2022-12-24T01:43:03.022Z,0
2022-12-24T01:44:19.323Z,0
2022-12-24T01:45:35.607Z,0
2022-12-24T01:46:51.880Z,0
2022-12-24T01:48:08.177Z,0
2022-12-24T01:49:24.485Z,0
2022-12-24T01:50:40.765Z,0
2022-12-24T01:51:57.058Z,0
2022-12-24T01:53:13.373Z,0
2022-12-24T01:54:29.662Z,0
2022-12-24T01:55:44.968Z,0
2022-12-24T01:57:01.264Z,0
2022-12-24T01:58:17.531Z,0
2022-12-24T01:59:33.828Z,0
2022-12-24T02:00:50.163Z,0
2022-12-24T02:02:06.440Z,0
2022-12-24T02:03:21.733Z,0
2022-12-24T02:04:38.046Z,0
2022-12-24T02:05:54.315Z,0
2022-12-24T02:07:10.613Z,0
2022-12-24T02:08:26.936Z,0
2022-12-24T02:09:43.221Z,0
2022-12-24T02:10:59.496Z,0
2022-12-24T02:12:15.817Z,0
2022-12-24T02:13:32.109Z,0
2022-12-24T02:14:48.374Z,0
2022-12-24T02:16:04.692Z,0
2022-12-24T02:17:20.961Z,0
2022-12-24T02:18:37.289Z,0
2022-12-24T02:19:52.564Z,0
2022-12-24T02:21:08.878Z,0
2022-12-24T02:22:25.158Z,0
2022-12-24T02:23:41.476Z,0
2022-12-24T02:24:57.734Z,0
2022-12-24T02:26:14.037Z,0
2022-12-24T02:27:30.360Z,0
2022-12-24T02:28:46.643Z,0
2022-12-24T02:30:02.935Z,0
2022-12-24T02:31:19.232Z,0
2022-12-24T02:32:35.502Z,0
2022-12-24T02:33:51.789Z,0
2022-12-24T02:35:08.109Z,0
2022-12-24T02:36:23.433Z,0
2022-12-24T02:37:39.687Z,0
2022-12-24T02:38:55.990Z,0
2022-12-24T02:40:12.278Z,0
2022-12-24T02:41:28.565Z,0
2022-12-24T02:42:44.900Z,0
2022-12-24T02:44:01.179Z,0
2022-12-24T02:45:17.455Z,0
2022-12-24T02:46:33.782Z,0
2022-12-24T02:47:50.061Z,0
2022-12-24T02:49:06.338Z,0
2022-12-24T02:50:22.626Z,0
2022-12-24T02:51:38.920Z,0
2022-12-24T02:52:54.224Z,0
2022-12-24T02:54:10.538Z,0
2022-12-24T02:55:26.828Z,0
2022-12-24T02:56:43.107Z,0
2022-12-24T02:57:59.417Z,0
2022-12-24T02:59:15.687Z,0
2022-12-24T03:00:31.986Z,0
2022-12-24T03:01:48.289Z,0
2022-12-24T03:03:04.575Z,0
2022-12-24T03:04:20.871Z,0
2022-12-24T03:05:37.167Z,0
2022-12-24T03:06:53.465Z,0
2022-12-24T03:08:09.764Z,0
2022-12-24T03:09:25.070Z,0
2022-12-24T03:10:41.359Z,0
2022-12-24T03:11:57.644Z,0
2022-12-24T03:13:13.943Z,0
2022-12-24T03:14:30.238Z,0
2022-12-24T03:15:46.531Z,0
2022-12-24T03:17:02.818Z,0
2022-12-24T03:18:19.131Z,0
2022-12-24T03:19:35.407Z,0
2022-12-24T03:20:51.702Z,0
2022-12-24T03:22:07.991Z,0
2022-12-24T03:23:24.289Z,0
2022-12-24T03:24:40.588Z,0
2022-12-24T03:25:55.901Z,0
2022-12-24T03:27:12.190Z,0
2022-12-24T03:28:28.467Z,0
2022-12-24T03:29:44.775Z,0
2022-12-24T03:31:01.057Z,0
2022-12-24T03:32:17.358Z,0
2022-12-24T03:33:33.652Z,0
2022-12-24T03:34:49.947Z,0
2022-12-24T03:36:06.250Z,0
2022-12-24T03:37:22.532Z,0
2022-12-24T03:38:38.830Z,0
2022-12-24T03:39:55.118Z,0
2022-12-24T03:41:11.410Z,0
2022-12-24T03:42:26.730Z,0
2022-12-24T03:43:43.019Z,0
2022-12-24T03:44:59.315Z,0
2022-12-24T03:46:15.601Z,0
2022-12-24T03:47:31.896Z,0
2022-12-24T03:48:48.195Z,0
2022-12-24T03:50:04.473Z,0
2022-12-24T03:51:20.788Z,0
2022-12-24T03:52:37.067Z,0
2022-12-24T03:53:53.365Z,0
2022-12-24T03:55:09.653Z,0
2022-12-24T03:56:25.941Z,0
2022-12-24T03:57:42.243Z,0
2022-12-24T03:58:57.555Z,0
2022-12-24T04:00:13.837Z,0
2022-12-24T04:01:30.139Z,0
2022-12-24T04:02:46.440Z,0
2022-12-24T04:04:02.737Z,0
2022-12-24T04:05:19.013Z,0
2022-12-24T04:06:35.307Z,0
2022-12-24T04:07:51.000Z,0
2022-12-24T04:09:07.903Z,0
2022-12-24T04:10:24.199Z,0
2022-12-24T04:11:40.487Z,0
2022-12-24T04:12:56.795Z,0
2022-12-24T04:14:13.088Z,0
2022-12-24T04:15:28.389Z,0
2022-12-24T04:16:44.693Z,0
2022-12-24T04:18:00.987Z,0
2022-12-24T04:19:17.279Z,0
2022-12-24T04:20:33.561Z,0
2022-12-24T04:21:49.854Z,0
2022-12-24T04:23:06.149Z,0
2022-12-24T04:24:22.450Z,0
2022-12-24T04:25:38.747Z,0
2022-12-24T04:26:55.025Z,0
2022-12-24T04:28:11.313Z,0
2022-12-24T04:29:27.620Z,0
2022-12-24T04:30:43.897Z,0
2022-12-24T04:31:59.211Z,0
2022-12-24T04:33:15.513Z,0
2022-12-24T04:34:31.796Z,0
2022-12-24T04:35:48.096Z,0
2022-12-24T04:37:04.390Z,0
2022-12-24T04:38:20.691Z,0
2022-12-24T04:39:36.990Z,0
2022-12-24T04:40:53.286Z,0
2022-12-24T04:42:09.570Z,0
2022-12-24T04:43:25.862Z,0
2022-12-24T04:44:42.157Z,0
2022-12-24T04:45:58.447Z,0
2022-12-24T04:47:14.738Z,0
2022-12-24T04:48:30.061Z,0
2022-12-24T04:49:46.334Z,0
2022-12-24T04:51:02.652Z,0
2022-12-24T04:52:18.924Z,0
2022-12-24T04:53:35.211Z,0
2022-12-24T04:54:51.520Z,0
2022-12-24T04:56:07.822Z,0
2022-12-24T04:57:24.108Z,0
2022-12-24T04:58:40.403Z,0
2022-12-24T04:59:56.691Z,0
2022-12-24T05:01:12.989Z,0
2022-12-24T05:02:29.285Z,0
2022-12-24T05:03:45.571Z,0
2022-12-24T05:05:00.882Z,0
2022-12-24T05:06:17.184Z,0
2022-12-24T05:07:33.472Z,0
2022-12-24T05:08:49.771Z,0
2022-12-24T05:10:06.061Z,0
2022-12-24T05:11:22.362Z,0
2022-12-24T05:12:38.637Z,0
2022-12-24T05:13:54.924Z,0
2022-12-24T05:15:11.220Z,0
2022-12-24T05:16:27.521Z,0
2022-12-24T05:17:43.824Z,0
2022-12-24T05:19:00.119Z,0
2022-12-24T05:20:16.417Z,0
2022-12-24T05:21:31.707Z,0
2022-12-24T05:22:48.006Z,0
2022-12-24T05:24:04.314Z,0
2022-12-24T05:25:20.601Z,0
2022-12-24T05:26:36.885Z,0
2022-12-24T05:27:53.171Z,0
2022-12-24T05:29:09.465Z,0
2022-12-24T05:30:25.767Z,0
2022-12-24T05:31:42.052Z,0
2022-12-24T05:32:58.366Z,0
2022-12-24T05:34:14.648Z,0
2022-12-24T05:35:30.943Z,0
2022-12-24T05:36:47.252Z,0
2022-12-24T05:38:02.552Z,0
2022-12-24T05:39:18.850Z,0
2022-12-24T05:40:35.135Z,0
2022-12-24T05:41:51.441Z,0
2022-12-24T05:43:07.736Z,0
2022-12-24T05:44:24.016Z,0
2022-12-24T05:45:40.306Z,0
2022-12-24T05:46:56.601Z,0
2022-12-24T05:48:12.893Z,0
2022-12-24T05:49:29.000Z,0
2022-12-24T05:50:45.487Z,0
2022-12-24T05:52:01.792Z,0
2022-12-24T05:53:18.067Z,0
2022-12-24T05:54:33.371Z,0
2022-12-24T05:55:49.678Z,0
2022-12-24T05:57:05.975Z,0
2022-12-24T05:58:22.260Z,0
2022-12-24T05:59:38.555Z,0
2022-12-24T06:00:54.848Z,0
2022-12-24T06:02:11.151Z,0
2022-12-24T06:03:27.423Z,0
2022-12-24T06:04:43.733Z,0
2022-12-24T06:06:00.030Z,0
2022-12-24T06:07:16.305Z,0
2022-12-24T06:08:32.620Z,0
2022-12-24T06:09:48.899Z,0
2022-12-24T06:11:04.208Z,0
2022-12-24T06:12:20.501Z,0
2022-12-24T06:13:36.814Z,0
2022-12-24T06:14:53.092Z,0
2022-12-24T06:16:09.382Z,0
2022-12-24T06:17:25.676Z,0
2022-12-24T06:18:41.008Z,0
2022-12-24T06:19:57.286Z,0
2022-12-24T06:21:13.583Z,0
2022-12-24T06:22:29.872Z,0
2022-12-24T06:23:46.167Z,0
2022-12-24T06:25:02.463Z,0
2022-12-24T06:26:18.747Z,0
2022-12-24T06:27:35.050Z,0
2022-12-24T06:28:51.335Z,0
2022-12-24T06:30:07.646Z,0
2022-12-24T06:31:23.944Z,0
2022-12-24T06:32:40.208Z,0
2022-12-24T06:33:56.000Z,0
2022-12-24T06:35:11.838Z,0
2022-12-24T06:36:28.125Z,0
2022-12-24T06:37:44.412Z,0
2022-12-24T06:39:00.694Z,0
2022-12-24T06:40:17.011Z,0
2022-12-24T06:41:33.244Z,1
2022-12-24T06:42:49.498Z,1
2022-12-24T06:44:05.000Z,1
2022-12-24T06:45:21.983Z,2
2022-12-24T06:46:38.219Z,1
2022-12-24T06:47:54.474Z,2
2022-12-24T06:49:10.709Z,1
2022-12-24T06:50:26.948Z,1
2022-12-24T06:51:42.206Z,1
2022-12-24T06:52:58.447Z,3
2022-12-24T06:54:14.686Z,2
2022-12-24T06:55:30.933Z,3
2022-12-24T06:56:47.177Z,8
2022-12-24T06:58:03.417Z,7
2022-12-24T06:59:19.638Z,10
2022-12-24T07:00:35.867Z,15
2022-12-24T07:01:52.127Z,22
2022-12-24T07:03:08.371Z,32
2022-12-24T07:04:24.599Z,28
2022-12-24T07:05:40.842Z,32
2022-12-24T07:06:57.087Z,38
2022-12-24T07:08:13.321Z,45
2022-12-24T07:09:28.585Z,53
2022-12-24T07:10:44.813Z,56
2022-12-24T07:12:01.065Z,58
2022-12-24T07:13:17.292Z,61
2022-12-24T07:14:33.525Z,64
2022-12-24T07:15:49.758Z,70
2022-12-24T07:17:06.015Z,75
2022-12-24T07:18:22.259Z,85
2022-12-24T07:19:38.492Z,88
2022-12-24T07:20:54.737Z,101
2022-12-24T07:22:10.966Z,110
2022-12-24T07:23:27.214Z,138
2022-12-24T07:24:43.462Z,145
2022-12-24T07:25:58.713Z,171
2022-12-24T07:27:14.957Z,185
2022-12-24T07:28:31.199Z,202
2022-12-24T07:29:47.429Z,210
2022-12-24T07:31:03.670Z,237
2022-12-24T07:32:19.911Z,255
2022-12-24T07:33:36.134Z,296
2022-12-24T07:34:52.391Z,350
2022-12-24T07:36:08.626Z,401
2022-12-24T07:37:24.867Z,443
2022-12-24T07:38:41.102Z,478
2022-12-24T07:39:57.354Z,510
2022-12-24T07:41:13.581Z,539
2022-12-24T07:42:28.856Z,594
2022-12-24T07:43:45.092Z,645
2022-12-24T07:45:01.315Z,708
2022-12-24T07:46:17.564Z,764
2022-12-24T07:47:33.800Z,809
2022-12-24T07:48:50.045Z,855
2022-12-24T07:50:06.272Z,911
2022-12-24T07:51:22.507Z,952
2022-12-24T07:52:38.768Z,977
2022-12-24T07:53:55.003Z,1003
2022-12-24T07:55:11.239Z,1031
2022-12-24T07:56:27.476Z,1045
2022-12-24T07:57:43.712Z,1062
2022-12-24T07:58:58.970Z,1040
2022-12-24T08:00:15.217Z,993
2022-12-24T08:01:31.447Z,1070
2022-12-24T08:02:47.687Z,1015
2022-12-24T08:04:03.934Z,1072
2022-12-24T08:05:20.158Z,1038
2022-12-24T08:06:36.417Z,1038
2022-12-24T08:07:52.660Z,1065
2022-12-24T08:09:08.899Z,995
2022-12-24T08:10:25.137Z,936
2022-12-24T08:11:41.377Z,958
2022-12-24T08:12:57.609Z,1020
2022-12-24T08:14:13.847Z,1071
2022-12-24T08:15:29.091Z,851
2022-12-24T08:16:45.350Z,711
2022-12-24T08:18:01.576Z,702
2022-12-24T08:19:17.805Z,654
2022-12-24T08:20:34.060Z,644
2022-12-24T08:21:50.312Z,651
2022-12-24T08:23:06.550Z,652
2022-12-24T08:24:22.767Z,653
2022-12-24T08:25:39.030Z,658
2022-12-24T08:26:55.266Z,662
2022-12-24T08:28:11.503Z,751
2022-12-24T08:29:27.731Z,746
2022-12-24T08:30:43.975Z,714
2022-12-24T08:31:59.219Z,770
2022-12-24T08:33:15.472Z,821
2022-12-24T08:34:31.698Z,884
2022-12-24T08:35:47.932Z,869
2022-12-24T08:37:04.186Z,968
2022-12-24T08:38:20.424Z,1030
2022-12-24T08:39:36.667Z,1107
2022-12-24T08:40:52.915Z,1170
2022-12-24T08:42:09.142Z,1224
2022-12-24T08:43:25.402Z,1322
2022-12-24T08:44:41.617Z,1422
2022-12-24T08:45:57.848Z,1427
2022-12-24T08:47:14.087Z,1470
2022-12-24T08:48:29.365Z,1618
2022-12-24T08:49:45.600Z,1695
2022-12-24T08:51:01.838Z,1739
2022-12-24T08:52:18.075Z,1834
2022-12-24T08:53:34.316Z,1981
2022-12-24T08:54:50.546Z,1972
2022-12-24T08:56:06.809Z,1976
2022-12-24T08:57:23.043Z,2068
2022-12-24T08:58:39.292Z,2142
2022-12-24T08:59:55.520Z,2163
2022-12-24T09:01:11.753Z,2182
2022-12-24T09:02:28.005Z,2200
2022-12-24T09:03:44.243Z,2212
2022-12-24T09:04:59.490Z,2218
2022-12-24T09:06:15.733Z,2227
2022-12-24T09:07:31.981Z,2234
2022-12-24T09:08:48.224Z,2238
2022-12-24T09:10:04.462Z,2243
2022-12-24T09:11:20.692Z,2252
2022-12-24T09:12:36.929Z,2261
2022-12-24T09:13:53.177Z,2271
2022-12-24T09:15:09.410Z,2274
2022-12-24T09:16:25.654Z,2275
2022-12-24T09:17:41.882Z,2279
2022-12-24T09:18:58.134Z,2280
2022-12-24T09:20:14.370Z,2262
2022-12-24T09:21:29.624Z,2272
2022-12-24T09:22:45.857Z,2294
2022-12-24T09:24:02.103Z,2312
2022-12-24T09:25:18.336Z,2344
2022-12-24T09:26:34.587Z,2356
2022-12-24T09:27:50.815Z,2177
2022-12-24T09:29:07.062Z,2183
2022-12-24T09:30:23.302Z,2298
2022-12-24T09:31:39.533Z,2265
2022-12-24T09:32:55.776Z,2126
2022-12-24T09:34:12.012Z,2222
2022-12-24T09:35:28.249Z,2265
2022-12-24T09:36:44.498Z,2221
2022-12-24T09:37:59.767Z,2192
2022-12-24T09:39:15.991Z,2241
2022-12-24T09:40:32.224Z,2002
2022-12-24T09:41:48.464Z,2008
2022-12-24T09:43:04.709Z,2001
2022-12-24T09:44:20.961Z,2002
2022-12-24T09:46:53.425Z,1989
2022-12-24T09:48:09.682Z,1857
2022-12-24T09:49:25.904Z,1935
2022-12-24T09:50:42.143Z,1893
2022-12-24T09:51:58.389Z,1951
2022-12-24T09:53:14.625Z,2072
2022-12-24T09:54:29.879Z,2025
2022-12-24T09:55:46.118Z,2063
2022-12-24T09:57:02.367Z,2153
2022-12-24T09:58:18.597Z,2127
2022-12-24T09:59:34.839Z,2483
2022-12-24T10:00:51.087Z,2350
2022-12-24T10:02:07.313Z,2300
2022-12-24T10:03:23.551Z,2243
2022-12-24T10:04:39.791Z,2322
2022-12-24T10:05:56.028Z,2389
2022-12-24T10:07:12.290Z,2067
2022-12-24T10:08:28.518Z,2404
2022-12-24T10:09:44.755Z,2386
2022-12-24T10:11:00.019Z,2526
2022-12-24T10:12:16.257Z,2499
2022-12-24T10:13:32.490Z,2352
2022-12-24T10:14:48.722Z,2229
2022-12-24T10:16:04.974Z,2103
2022-12-24T10:17:21.217Z,2022
2022-12-24T10:18:37.455Z,1997
2022-12-24T10:19:53.683Z,2022
2022-12-24T10:21:09.937Z,2040
2022-12-24T10:22:26.169Z,2054
2022-12-24T10:23:42.408Z,2065
2022-12-24T10:24:58.646Z,2060
2022-12-24T10:26:14.895Z,2055
2022-12-24T10:27:30.144Z,2035
2022-12-24T10:28:46.373Z,2007
2022-12-24T10:30:02.634Z,2011
2022-12-24T10:31:18.860Z,2054
2022-12-24T10:32:35.106Z,2088
2022-12-24T10:33:50.362Z,2112
2022-12-24T10:35:06.613Z,2116
2022-12-24T10:36:22.839Z,2082
2022-12-24T10:37:39.079Z,2052
2022-12-24T10:38:55.318Z,2044
2022-12-24T10:40:11.551Z,2050
2022-12-24T10:41:27.808Z,2074
2022-12-24T10:42:44.035Z,2141
2022-12-24T10:44:00.269Z,2196
2022-12-24T10:45:16.512Z,2235
2022-12-24T10:46:32.760Z,2314
2022-12-24T10:47:48.995Z,2392
2022-12-24T10:49:05.233Z,2445
2022-12-24T10:50:20.495Z,2523
2022-12-24T10:51:36.730Z,2546
2022-12-24T10:52:52.969Z,2606
2022-12-24T10:54:09.220Z,2534
2022-12-24T10:55:25.444Z,2365
2022-12-24T10:56:41.698Z,2294
2022-12-24T10:57:57.931Z,2164
2022-12-24T10:59:14.162Z,2313
2022-12-24T11:00:30.419Z,2434
2022-12-24T11:01:46.641Z,2277
2022-12-24T11:03:02.881Z,2199
2022-12-24T11:04:19.119Z,2134
2022-12-24T11:05:35.368Z,2052
2022-12-24T11:06:50.619Z,2002
2022-12-24T11:08:06.859Z,1847
2022-12-24T11:09:23.091Z,1867
2022-12-24T11:10:39.343Z,1774
2022-12-24T11:11:55.579Z,1769
2022-12-24T11:13:11.815Z,1549
2022-12-24T11:14:28.061Z,1254
2022-12-24T11:15:44.293Z,1027
2022-12-24T11:17:00.536Z,875
2022-12-24T11:18:16.782Z,796
2022-12-24T11:19:33.009Z,710
2022-12-24T11:20:49.260Z,705
2022-12-24T11:22:05.496Z,749
2022-12-24T11:23:20.759Z,795
2022-12-24T11:24:36.985Z,1083
2022-12-24T11:25:53.234Z,1229
2022-12-24T11:27:09.461Z,1195
2022-12-24T11:28:25.714Z,1021
2022-12-24T11:29:41.950Z,834
2022-12-24T11:30:58.182Z,1017
2022-12-24T11:32:14.426Z,1288
2022-12-24T11:33:30.669Z,1481
2022-12-24T11:34:46.907Z,1594
2022-12-24T11:36:03.146Z,1697
2022-12-24T11:37:19.377Z,1704
2022-12-24T11:38:35.620Z,1508
2022-12-24T11:39:50.879Z,1452
2022-12-24T11:41:07.113Z,1332
2022-12-24T11:42:23.356Z,1361
2022-12-24T11:43:39.606Z,1468
2022-12-24T11:44:55.832Z,1373
2022-12-24T11:46:12.075Z,1212
2022-12-24T11:47:28.312Z,1069
2022-12-24T11:48:44.556Z,1020
2022-12-24T11:50:00.794Z,1019
2022-12-24T11:51:17.035Z,1281
2022-12-24T11:52:33.267Z,1372
2022-12-24T11:53:49.522Z,1327
2022-12-24T11:55:05.755Z,1289
2022-12-24T11:56:21.001Z,1119
2022-12-24T11:57:37.252Z,957
2022-12-24T11:58:53.480Z,938
2022-12-24T12:00:09.721Z,1011
2022-12-24T12:01:25.970Z,986
2022-12-24T12:02:42.208Z,974
2022-12-24T12:03:58.442Z,1138
2022-12-24T12:05:14.682Z,1012
2022-12-24T12:06:30.930Z,1055
2022-12-24T12:07:47.157Z,1066
2022-12-24T12:09:03.402Z,1119
2022-12-24T12:10:19.640Z,1368
2022-12-24T12:11:35.886Z,1427
2022-12-24T12:12:51.141Z,1195
2022-12-24T12:14:07.371Z,1197
2022-12-24T12:15:23.610Z,1085
2022-12-24T12:16:39.851Z,1145
2022-12-24T12:17:56.108Z,1278
2022-12-24T12:19:12.337Z,1232
2022-12-24T12:20:28.575Z,1092
2022-12-24T12:21:44.825Z,1081
2022-12-24T12:23:01.049Z,1030
2022-12-24T12:24:17.289Z,1053
2022-12-24T12:25:33.537Z,1102
2022-12-24T12:26:49.778Z,1020
2022-12-24T12:28:06.013Z,1053
2022-12-24T12:29:21.281Z,1009
2022-12-24T12:30:37.502Z,931
2022-12-24T12:31:53.747Z,989
2022-12-24T12:33:09.983Z,916
2022-12-24T12:34:26.234Z,809
2022-12-24T12:35:42.470Z,867
2022-12-24T12:36:58.700Z,986
2022-12-24T12:38:14.949Z,1092
2022-12-24T12:39:31.179Z,1110
2022-12-24T12:40:47.421Z,1153
2022-12-24T12:42:03.665Z,1275
2022-12-24T12:43:19.912Z,1308
2022-12-24T12:44:36.151Z,1302
2022-12-24T12:45:51.396Z,1110
2022-12-24T12:47:07.634Z,941
2022-12-24T12:48:23.880Z,902
2022-12-24T12:49:40.119Z,673
2022-12-24T12:50:56.352Z,667
2022-12-24T12:52:12.598Z,696
2022-12-24T12:53:28.831Z,658
2022-12-24T12:54:45.071Z,627
2022-12-24T12:56:01.313Z,546
2022-12-24T12:57:17.556Z,531
2022-12-24T12:58:33.798Z,554
2022-12-24T12:59:50.030Z,761
2022-12-24T13:01:06.279Z,832
2022-12-24T13:02:21.524Z,642
2022-12-24T13:03:37.770Z,1023
2022-12-24T13:04:54.013Z,1427
2022-12-24T13:06:10.251Z,1342
2022-12-24T13:07:26.493Z,1408
2022-12-24T13:08:42.725Z,1364
2022-12-24T13:09:58.970Z,1226
2022-12-24T13:11:15.204Z,1202
2022-12-24T13:12:31.445Z,1177
2022-12-24T13:13:47.682Z,886
2022-12-24T13:15:03.928Z,918
2022-12-24T13:16:20.157Z,1094
2022-12-24T13:17:36.395Z,1256
2022-12-24T13:18:51.658Z,1258
2022-12-24T13:20:07.908Z,1042
2022-12-24T13:21:24.131Z,902
2022-12-24T13:22:40.384Z,1120
2022-12-24T13:23:56.614Z,1181
2022-12-24T13:25:12.849Z,1319
2022-12-24T13:26:29.092Z,1383
2022-12-24T13:27:45.337Z,1298
2022-12-24T13:29:01.572Z,1259
2022-12-24T13:30:17.808Z,1305
2022-12-24T13:31:34.061Z,1258
2022-12-24T13:32:50.306Z,1197
2022-12-24T13:34:06.533Z,1132
2022-12-24T13:35:21.784Z,1019
2022-12-24T13:36:38.025Z,911
2022-12-24T13:37:54.265Z,710
2022-12-24T13:39:10.504Z,599
2022-12-24T13:40:26.750Z,478
2022-12-24T13:41:42.987Z,519
2022-12-24T13:42:59.223Z,552
2022-12-24T13:44:15.472Z,538
2022-12-24T13:45:31.703Z,492
2022-12-24T13:46:47.948Z,470
2022-12-24T13:48:04.194Z,352
2022-12-24T13:49:20.420Z,305
2022-12-24T13:50:36.672Z,304
2022-12-24T13:51:51.920Z,396
2022-12-24T13:53:08.165Z,305
2022-12-24T13:54:24.401Z,454
2022-12-24T13:55:40.640Z,573
2022-12-24T13:56:56.887Z,660
2022-12-24T13:58:13.117Z,549
2022-12-24T13:59:29.368Z,495
2022-12-24T14:00:45.608Z,617
2022-12-24T14:02:01.834Z,823
2022-12-24T14:03:18.082Z,766
2022-12-24T14:04:34.319Z,625
2022-12-24T14:05:50.554Z,624
2022-12-24T14:07:06.791Z,661
2022-12-24T14:08:22.046Z,590
2022-12-24T14:09:38.291Z,525
2022-12-24T14:10:54.529Z,553
2022-12-24T14:12:10.784Z,479
2022-12-24T14:13:27.003Z,409
2022-12-24T14:14:43.256Z,440
2022-12-24T14:15:59.495Z,443
2022-12-24T14:17:15.728Z,355
2022-12-24T14:18:31.962Z,317
2022-12-24T14:19:48.216Z,361
2022-12-24T14:21:04.447Z,326
2022-12-24T14:22:20.684Z,348
2022-12-24T14:23:36.925Z,319
2022-12-24T14:24:52.186Z,265
2022-12-24T14:26:08.415Z,194
2022-12-24T14:27:24.673Z,179
2022-12-24T14:28:40.906Z,168
2022-12-24T14:29:57.146Z,69
2022-12-24T14:31:13.385Z,98
2022-12-24T14:32:29.615Z,320
2022-12-24T14:33:45.864Z,407
2022-12-24T14:35:02.106Z,353
2022-12-24T14:36:18.334Z,255
2022-12-24T14:37:34.573Z,240
2022-12-24T14:38:50.809Z,292
2022-12-24T14:40:07.062Z,360
2022-12-24T14:41:22.318Z,352
2022-12-24T14:42:38.558Z,332
2022-12-24T14:43:54.796Z,287
2022-12-24T14:45:11.038Z,254
2022-12-24T14:46:27.272Z,267
2022-12-24T14:47:43.507Z,270
2022-12-24T14:48:58.769Z,245
2022-12-24T14:50:15.020Z,230
2022-12-24T14:51:31.250Z,241
2022-12-24T14:52:47.484Z,248
2022-12-24T14:54:03.725Z,238
2022-12-24T14:55:19.972Z,211
2022-12-24T14:56:36.218Z,196
2022-12-24T14:57:52.453Z,185
2022-12-24T14:59:08.683Z,173
2022-12-24T15:00:24.929Z,162
2022-12-24T15:01:41.163Z,153
2022-12-24T15:02:57.402Z,138
2022-12-24T15:04:13.642Z,125
2022-12-24T15:05:28.903Z,113
2022-12-24T15:06:45.137Z,104
2022-12-24T15:08:01.375Z,100
2022-12-24T15:09:17.623Z,89
2022-12-24T15:10:33.861Z,80
2022-12-24T15:11:50.093Z,69
2022-12-24T15:13:06.340Z,64
2022-12-24T15:14:22.591Z,56
2022-12-24T15:15:38.815Z,52
2022-12-24T15:16:55.060Z,42
2022-12-24T15:18:11.291Z,38
2022-12-24T15:19:27.531Z,34
2022-12-24T15:20:43.785Z,31
2022-12-24T15:21:59.036Z,25
2022-12-24T15:23:15.282Z,24
2022-12-24T15:24:31.510Z,19
2022-12-24T15:25:47.748Z,19
2022-12-24T15:27:03.987Z,16
2022-12-24T15:28:20.224Z,13
2022-12-24T15:29:36.474Z,11
2022-12-24T15:30:52.709Z,5
2022-12-24T15:32:08.949Z,6
2022-12-24T15:33:25.181Z,5
2022-12-24T15:34:41.436Z,6
2022-12-24T15:35:57.672Z,3
2022-12-24T15:37:13.904Z,3
2022-12-24T15:38:29.165Z,3
2022-12-24T15:39:45.411Z,2
2022-12-24T15:41:01.644Z,1
2022-12-24T15:42:17.874Z,2
2022-12-24T15:43:34.132Z,1
2022-12-24T15:44:50.352Z,1
2022-12-24T15:46:06.649Z,0
2022-12-24T15:47:22.954Z,0
2022-12-24T15:48:39.243Z,0
2022-12-24T15:49:55.539Z,0
2022-12-24T15:51:11.829Z,0
2022-12-24T15:52:28.133Z,0
2022-12-24T15:53:44.410Z,0
2022-12-24T15:54:59.728Z,0
2022-12-24T15:56:16.017Z,0
2022-12-24T15:57:32.313Z,0
2022-12-24T15:58:48.617Z,0
2022-12-24T16:00:04.897Z,0
2022-12-24T16:01:21.195Z,0
2022-12-24T16:02:37.492Z,0
2022-12-24T16:03:53.792Z,0
2022-12-24T16:05:10.083Z,0
2022-12-24T16:06:26.385Z,0
2022-12-24T16:07:42.661Z,0
2022-12-24T16:08:58.952Z,0
2022-12-24T16:10:15.249Z,0
2022-12-24T16:11:30.556Z,0
2022-12-24T16:12:46.856Z,0
2022-12-24T16:14:03.145Z,0
2022-12-24T16:15:19.433Z,0
2022-12-24T16:16:35.729Z,0
2022-12-24T16:17:52.033Z,0
2022-12-24T16:19:08.329Z,0
2022-12-24T16:20:24.618Z,0
2022-12-24T16:21:40.909Z,0
2022-12-24T16:22:57.201Z,0
2022-12-24T16:24:13.498Z,0
2022-12-24T16:25:29.791Z,0
2022-12-24T16:26:46.093Z,0
2022-12-24T16:28:01.388Z,0
2022-12-24T16:29:17.686Z,0
2022-12-24T16:30:33.978Z,0
2022-12-24T16:31:50.276Z,0
2022-12-24T16:33:06.574Z,0
2022-12-24T16:34:22.858Z,0
2022-12-24T16:35:39.166Z,0
2022-12-24T16:36:55.445Z,0
2022-12-24T16:38:11.737Z,0
2022-12-24T16:39:28.029Z,0
2022-12-24T16:40:44.334Z,0
2022-12-24T16:42:00.624Z,0
2022-12-24T16:43:16.916Z,0
2022-12-24T16:44:32.231Z,0
2022-12-24T16:45:48.530Z,0
2022-12-24T16:47:04.814Z,0
2022-12-24T16:48:21.107Z,0
2022-12-24T16:49:37.398Z,0
2022-12-24T16:50:53.692Z,0
2022-12-24T16:52:09.989Z,0
2022-12-24T16:53:26.281Z,0
2022-12-24T16:54:42.585Z,0
2022-12-24T16:55:58.868Z,0
2022-12-24T16:57:15.165Z,0
2022-12-24T16:58:31.457Z,0
2022-12-24T16:59:47.746Z,0
2022-12-24T17:01:03.065Z,0
2022-12-24T17:02:19.365Z,0
2022-12-24T17:03:35.654Z,0
2022-12-24T17:04:51.950Z,0
2022-12-24T17:06:08.233Z,0
2022-12-24T17:07:24.525Z,0
2022-12-24T17:08:40.821Z,0
2022-12-24T17:09:57.114Z,0
2022-12-24T17:11:13.399Z,0
2022-12-24T17:12:29.703Z,0
2022-12-24T17:13:45.992Z,0
2022-12-24T17:15:02.289Z,0
2022-12-24T17:16:18.589Z,0
2022-12-24T17:17:33.899Z,0
2022-12-24T17:18:50.179Z,0
2022-12-24T17:20:06.488Z,0
2022-12-24T17:21:22.770Z,0
2022-12-24T17:22:39.076Z,0
2022-12-24T17:23:55.358Z,0
2022-12-24T17:25:11.647Z,0
2022-12-24T17:26:27.958Z,0
2022-12-24T17:27:44.232Z,0
2022-12-24T17:29:00.530Z,0
2022-12-24T17:30:16.822Z,0
2022-12-24T17:31:33.123Z,0
2022-12-24T17:32:49.407Z,0
2022-12-24T17:34:04.729Z,0
2022-12-24T17:35:21.023Z,0
2022-12-24T17:36:37.308Z,0
2022-12-24T17:37:53.607Z,0
2022-12-24T17:39:09.899Z,0
2022-12-24T17:40:26.193Z,0
2022-12-24T17:41:42.483Z,0
2022-12-24T17:42:58.786Z,0
2022-12-24T17:44:15.065Z,0
2022-12-24T17:45:31.374Z,0
2022-12-24T17:46:47.673Z,0
2022-12-24T17:48:03.964Z,0
2022-12-24T17:49:20.250Z,0
2022-12-24T17:50:35.555Z,0
2022-12-24T17:51:51.851Z,0
2022-12-24T17:53:08.147Z,0
2022-12-24T17:54:24.439Z,0
2022-12-24T17:55:40.740Z,0
2022-12-24T17:56:57.025Z,0
2022-12-24T17:58:13.318Z,0
2022-12-24T17:59:29.613Z,0
2022-12-24T18:00:45.917Z,0